Name Machine Type Up Locked Locked Since Locked By OS Type OS Version Arch Description
smithi078.front.sepia.ceph.com smithi True True 2018-10-18 02:23:08.964271 scheduled_jdillaman@dillaman-rh ubuntu 16.04 x86_64 /home/teuthworker/archive/jdillaman-2018-10-17_21:39:29-rbd-wip-jd-testing-distro-basic-smithi/3155322
Status Job ID Links Posted Started Updated
Runtime
Duration
In Waiting
Machine Teuthology Branch OS Type OS Version
running 3155322 2018-10-18 01:41:03 2018-10-18 02:17:28 2018-10-18 02:37:27 0:21:05 smithi master
pass 3155243 2018-10-18 01:39:53 2018-10-18 01:47:58 2018-10-18 02:03:58 0:16:00 0:06:31 0:09:29 smithi master ubuntu 16.04
fail 3154507 2018-10-17 22:41:23 2018-10-17 22:41:23 2018-10-17 23:07:23 0:26:00 0:06:05 0:19:55 smithi master
Failure Reason:

'pg_stats'

fail 3154452 2018-10-17 20:29:10 2018-10-17 21:22:58 2018-10-18 00:43:01 3:20:03 0:03:21 3:16:42 smithi master ubuntu 16.04
Failure Reason:

Command failed on smithi172 with status 100: u'sudo DEBIAN_FRONTEND=noninteractive apt-get -y --force-yes -o Dpkg::Options::="--force-confdef" -o Dpkg::Options::="--force-confold" install ceph-mds=10.2.11-7-g3b165d0-1xenial ceph=10.2.11-7-g3b165d0-1xenial rbd-fuse=10.2.11-7-g3b165d0-1xenial librbd1=10.2.11-7-g3b165d0-1xenial python3-cephfs=10.2.11-7-g3b165d0-1xenial ceph-fuse=10.2.11-7-g3b165d0-1xenial python-ceph=10.2.11-7-g3b165d0-1xenial ceph-common=10.2.11-7-g3b165d0-1xenial libcephfs-java=10.2.11-7-g3b165d0-1xenial python3-rados=10.2.11-7-g3b165d0-1xenial libcephfs-jni=10.2.11-7-g3b165d0-1xenial ceph-test=10.2.11-7-g3b165d0-1xenial radosgw=10.2.11-7-g3b165d0-1xenial librados2=10.2.11-7-g3b165d0-1xenial'

fail 3154439 2018-10-17 20:29:00 2018-10-17 21:05:08 2018-10-17 21:29:07 0:23:59 0:03:19 0:20:40 smithi master ubuntu 14.04
Failure Reason:

Command failed on smithi078 with status 100: u'sudo DEBIAN_FRONTEND=noninteractive apt-get -y --force-yes -o Dpkg::Options::="--force-confdef" -o Dpkg::Options::="--force-confold" install ceph-mds=10.2.11-7-g3b165d0-1trusty ceph=10.2.11-7-g3b165d0-1trusty rbd-fuse=10.2.11-7-g3b165d0-1trusty librbd1=10.2.11-7-g3b165d0-1trusty python3-cephfs=10.2.11-7-g3b165d0-1trusty ceph-fuse=10.2.11-7-g3b165d0-1trusty python-ceph=10.2.11-7-g3b165d0-1trusty ceph-common=10.2.11-7-g3b165d0-1trusty libcephfs-java=10.2.11-7-g3b165d0-1trusty python3-rados=10.2.11-7-g3b165d0-1trusty libcephfs-jni=10.2.11-7-g3b165d0-1trusty ceph-test=10.2.11-7-g3b165d0-1trusty radosgw=10.2.11-7-g3b165d0-1trusty librados2=10.2.11-7-g3b165d0-1trusty'

pass 3154182 2018-10-17 20:23:26 2018-10-18 00:53:29 2018-10-18 01:35:28 0:41:59 0:21:41 0:20:18 smithi master ubuntu 18.04
pass 3154114 2018-10-17 20:22:35 2018-10-18 00:00:09 2018-10-18 00:26:08 0:25:59 0:13:56 0:12:03 smithi master ubuntu 18.04
pass 3154051 2018-10-17 20:21:45 2018-10-17 23:15:13 2018-10-17 23:43:13 0:28:00 0:14:54 0:13:06 smithi master ubuntu 18.04
pass 3152131 2018-10-17 19:40:53 2018-10-17 19:55:09 2018-10-17 20:59:09 1:04:00 0:52:06 0:11:54 smithi wip-pdonnell-testing rhel 7.5
pass 3152099 2018-10-17 19:40:27 2018-10-17 19:40:57 2018-10-17 19:58:55 0:17:58 0:07:08 0:10:50 smithi wip-pdonnell-testing
fail 3151689 2018-10-17 16:01:14 2018-10-17 17:28:42 2018-10-17 18:28:41 0:59:59 0:10:57 0:49:02 smithi master rhel 7.5
Failure Reason:

An attempt to upgrade from a higher version to a lower one will always fail. Hint: check tags in the target git branch.

fail 3151653 2018-10-17 15:59:25 2018-10-17 17:12:36 2018-10-17 17:26:35 0:13:59 0:03:12 0:10:47 smithi master ubuntu 16.04
Failure Reason:

Command failed on smithi078 with status 100: u'sudo DEBIAN_FRONTEND=noninteractive apt-get -y --force-yes -o Dpkg::Options::="--force-confdef" -o Dpkg::Options::="--force-confold" install ceph-mds=10.2.11-7-g3b165d0-1xenial ceph=10.2.11-7-g3b165d0-1xenial rbd-fuse=10.2.11-7-g3b165d0-1xenial librbd1=10.2.11-7-g3b165d0-1xenial python3-cephfs=10.2.11-7-g3b165d0-1xenial ceph-fuse=10.2.11-7-g3b165d0-1xenial python-ceph=10.2.11-7-g3b165d0-1xenial ceph-common=10.2.11-7-g3b165d0-1xenial libcephfs-java=10.2.11-7-g3b165d0-1xenial python3-rados=10.2.11-7-g3b165d0-1xenial libcephfs-jni=10.2.11-7-g3b165d0-1xenial ceph-test=10.2.11-7-g3b165d0-1xenial radosgw=10.2.11-7-g3b165d0-1xenial librados2=10.2.11-7-g3b165d0-1xenial'

pass 3150294 2018-10-17 03:16:53 2018-10-17 17:35:46 2018-10-17 18:07:46 0:32:00 0:22:33 0:09:27 smithi master centos 7.4
pass 3149887 2018-10-17 02:03:15 2018-10-17 06:13:02 2018-10-17 06:37:01 0:23:59 0:09:29 0:14:30 smithi master
pass 3149826 2018-10-17 02:02:33 2018-10-17 05:50:53 2018-10-17 06:18:52 0:27:59 0:16:38 0:11:21 smithi master rhel 7.5
pass 3149743 2018-10-17 02:02:02 2018-10-17 05:34:54 2018-10-17 05:54:54 0:20:00 0:09:55 0:10:05 smithi master ubuntu 18.04
pass 3149601 2018-10-17 02:00:47 2018-10-17 04:58:52 2018-10-17 05:32:51 0:33:59 0:22:26 0:11:33 smithi master rhel 7.5
pass 3149517 2018-10-17 01:59:40 2018-10-17 04:16:39 2018-10-17 05:02:39 0:46:00 0:34:45 0:11:15 smithi master rhel 7.5
pass 3149366 2018-10-16 22:59:06 2018-10-17 01:46:25 2018-10-17 02:44:25 0:58:00 0:30:40 0:27:20 smithi master centos 7.4
pass 3149334 2018-10-16 22:58:40 2018-10-17 01:34:33 2018-10-17 01:56:33 0:22:00 0:07:01 0:14:59 smithi master ubuntu 16.04